createdAt,value
2018-09-26T00:01:54.745Z,51.58
2018-09-26T00:04:27.547Z,51.96
2018-09-26T00:06:55.826Z,51.87
2018-09-26T00:09:23.383Z,51.82
2018-09-26T00:11:50.915Z,51.60
2018-09-26T00:14:18.458Z,51.87
2018-09-26T00:16:46.003Z,52.11
2018-09-26T00:19:13.707Z,52.13
2018-09-26T00:21:41.262Z,52.41
2018-09-26T00:24:08.819Z,52.14
2018-09-26T00:26:36.357Z,52.55
2018-09-26T00:29:04.478Z,52.72
2018-09-26T00:31:32.069Z,52.85
2018-09-26T00:33:59.618Z,52.90
2018-09-26T00:36:27.388Z,52.76
2018-09-26T00:38:55.006Z,52.68
2018-09-26T00:41:22.605Z,52.68
2018-09-26T00:43:50.127Z,52.87
2018-09-26T00:46:17.690Z,52.86
2018-09-26T00:48:45.205Z,52.82
2018-09-26T00:51:12.766Z,52.89
2018-09-26T00:53:40.318Z,53.16
2018-09-26T00:56:07.885Z,53.27
2018-09-26T00:58:35.425Z,53.35
2018-09-26T01:01:03.086Z,53.43
2018-09-26T01:03:30.813Z,53.13
2018-09-26T01:05:58.386Z,53.39
2018-09-26T01:08:25.938Z,53.25
2018-09-26T01:10:53.591Z,53.09
2018-09-26T01:13:21.104Z,53.53
2018-09-26T01:15:48.642Z,53.51
2018-09-26T01:18:16.154Z,53.28
2018-09-26T01:20:44.042Z,53.40
2018-09-26T01:23:11.909Z,53.53
2018-09-26T01:25:39.849Z,53.80
2018-09-26T01:28:07.396Z,53.64
2018-09-26T01:30:34.947Z,53.73
2018-09-26T01:33:02.606Z,53.92
2018-09-26T01:35:30.153Z,53.80
2018-09-26T01:37:57.747Z,53.98
2018-09-26T01:40:25.342Z,54.13
2018-09-26T01:42:52.906Z,54.33
2018-09-26T01:45:20.470Z,55.52
2018-09-26T01:47:48.103Z,55.34
2018-09-26T01:50:15.641Z,55.16
2018-09-26T01:52:43.185Z,54.64
2018-09-26T01:55:10.774Z,54.52
2018-09-26T01:57:38.337Z,55.25
2018-09-26T02:00:06.147Z,55.43
2018-09-26T02:02:33.951Z,55.31
2018-09-26T02:05:01.850Z,55.74
2018-09-26T02:07:29.391Z,55.99
2018-09-26T02:09:56.969Z,56.64
2018-09-26T02:12:24.617Z,56.76
2018-09-26T02:14:52.170Z,57.23
2018-09-26T02:17:19.754Z,57.00
2018-09-26T02:19:47.347Z,57.06
2018-09-26T02:22:15.198Z,57.20
2018-09-26T02:24:42.718Z,57.57
2018-09-26T02:27:10.272Z,58.66
2018-09-26T02:29:37.862Z,58.84
2018-09-26T02:32:05.599Z,59.26
2018-09-26T02:34:33.197Z,59.25
2018-09-26T02:37:00.798Z,58.73
2018-09-26T02:39:28.326Z,58.40
2018-09-26T02:41:55.921Z,58.44
2018-09-26T02:44:23.463Z,58.56
2018-09-26T02:46:51.027Z,58.45
2018-09-26T02:49:19.582Z,58.97
2018-09-26T02:51:47.147Z,58.75
2018-09-26T02:54:14.658Z,58.90
2018-09-26T02:56:42.199Z,59.33
2018-09-26T02:59:09.743Z,59.28
2018-09-26T03:01:37.287Z,59.12
2018-09-26T03:04:04.879Z,59.33
2018-09-26T03:06:32.413Z,59.80
2018-09-26T03:08:59.937Z,61.09
2018-09-26T03:11:27.467Z,61.13
2018-09-26T03:13:55.071Z,61.75
2018-09-26T03:16:22.605Z,61.44
2018-09-26T03:18:50.142Z,60.95
2018-09-26T03:21:17.722Z,61.16
2018-09-26T03:23:45.239Z,61.54
2018-09-26T03:26:12.831Z,61.52
2018-09-26T03:28:40.359Z,61.75
2018-09-26T03:31:07.917Z,61.67
2018-09-26T03:33:35.555Z,61.37
2018-09-26T03:36:03.095Z,61.22
2018-09-26T03:38:30.658Z,62.17
2018-09-26T03:40:58.190Z,62.56
2018-09-26T03:43:25.727Z,62.61
2018-09-26T03:45:53.261Z,62.98
2018-09-26T03:48:20.786Z,63.10
2018-09-26T03:50:48.497Z,63.49
2018-09-26T03:53:16.011Z,63.49
2018-09-26T03:55:43.565Z,63.87
2018-09-26T03:58:11.132Z,64.09
2018-09-26T04:00:39.065Z,64.46
2018-09-26T04:03:06.613Z,65.01
2018-09-26T04:05:34.153Z,64.87
2018-09-26T04:08:01.770Z,64.91
2018-09-26T04:10:29.291Z,65.38
2018-09-26T04:12:56.892Z,65.21
2018-09-26T04:15:24.370Z,65.38
2018-09-26T04:17:51.914Z,65.87
2018-09-26T04:20:19.811Z,65.97
2018-09-26T04:22:47.344Z,65.81
2018-09-26T04:25:14.894Z,65.71
2018-09-26T04:27:42.599Z,65.82
2018-09-26T04:30:10.078Z,66.35
2018-09-26T04:32:38.178Z,66.15
2018-09-26T04:35:05.768Z,66.58
2018-09-26T04:37:33.571Z,66.41
2018-09-26T04:40:01.131Z,65.99
2018-09-26T04:42:28.683Z,66.84
2018-09-26T04:44:56.222Z,67.21
2018-09-26T04:47:23.879Z,67.24
2018-09-26T04:49:51.438Z,67.67
2018-09-26T04:52:19.027Z,68.14
2018-09-26T04:54:46.695Z,68.23
2018-09-26T04:57:14.480Z,68.00
2018-09-26T04:59:42.057Z,68.40
2018-09-26T05:02:09.610Z,68.79
2018-09-26T05:04:37.206Z,68.68
2018-09-26T05:07:04.847Z,68.76
2018-09-26T05:09:32.366Z,69.52
2018-09-26T05:11:59.981Z,69.08
2018-09-26T05:14:27.525Z,68.59
2018-09-26T05:16:55.054Z,68.51
2018-09-26T05:19:22.725Z,69.42
2018-09-26T05:21:50.319Z,70.12
2018-09-26T05:24:17.906Z,69.82
2018-09-26T05:26:45.470Z,69.58
2018-09-26T05:29:12.981Z,70.42
2018-09-26T05:31:41.317Z,70.37
2018-09-26T05:34:08.873Z,70.94
2018-09-26T05:36:36.503Z,70.50
2018-09-26T05:39:05.967Z,70.52
2018-09-26T05:41:33.518Z,70.65
2018-09-26T05:44:01.000Z,70.73
2018-09-26T05:46:28.566Z,70.48
2018-09-26T05:48:56.321Z,70.97
2018-09-26T05:51:24.347Z,70.46
2018-09-26T05:53:51.931Z,69.46
2018-09-26T05:56:19.483Z,68.81
2018-09-26T05:58:47.021Z,66.90
2018-09-26T06:01:14.555Z,64.43
2018-09-26T06:03:42.097Z,63.48
2018-09-26T06:06:09.642Z,62.12
2018-09-26T06:08:37.807Z,61.86
2018-09-26T06:11:05.439Z,61.10
2018-09-26T06:13:32.966Z,60.15
2018-09-26T06:16:00.531Z,59.20
2018-09-26T06:18:28.089Z,57.72
2018-09-26T06:20:55.663Z,56.21
2018-09-26T06:23:23.185Z,55.71
2018-09-26T06:25:50.805Z,55.45
2018-09-26T06:28:18.350Z,55.55
2018-09-26T06:30:45.939Z,54.35
2018-09-26T06:33:13.444Z,54.84
2018-09-26T06:35:41.097Z,54.63
2018-09-26T06:38:08.607Z,53.95
2018-09-26T06:40:36.332Z,53.64
2018-09-26T06:43:03.764Z,52.70
2018-09-26T06:45:31.305Z,51.83
2018-09-26T06:47:59.026Z,51.16
2018-09-26T06:50:26.572Z,50.54
2018-09-26T06:52:54.134Z,50.05
2018-09-26T06:55:21.790Z,49.61
2018-09-26T06:57:49.351Z,49.52
2018-09-26T07:00:16.910Z,49.81
2018-09-26T07:02:44.813Z,49.34
2018-09-26T07:05:12.402Z,49.43
2018-09-26T07:07:39.926Z,48.23
2018-09-26T07:10:07.531Z,47.62
2018-09-26T07:12:35.062Z,45.83
2018-09-26T07:15:02.838Z,45.70
2018-09-26T07:17:30.413Z,44.15
2018-09-26T07:19:58.010Z,42.26
2018-09-26T07:22:25.577Z,39.62
2018-09-26T07:24:53.156Z,37.37
2018-09-26T07:27:20.795Z,35.52
2018-09-26T07:29:48.335Z,33.49
2018-09-26T07:32:15.909Z,32.23
2018-09-26T07:34:43.463Z,31.63
2018-09-26T07:37:10.970Z,30.87
2018-09-26T07:39:38.578Z,30.40
2018-09-26T07:42:06.234Z,30.17
2018-09-26T07:44:33.782Z,29.63
2018-09-26T07:47:01.354Z,29.33
2018-09-26T07:49:28.995Z,28.26
2018-09-26T07:51:56.646Z,27.50
2018-09-26T07:54:24.203Z,28.30
2018-09-26T07:56:51.750Z,28.37
2018-09-26T07:59:19.327Z,28.01
2018-09-26T08:01:46.913Z,27.37
2018-09-26T08:04:14.502Z,26.58
2018-09-26T08:06:42.042Z,26.29
2018-09-26T08:09:10.406Z,25.84
2018-09-26T08:11:38.263Z,25.95
2018-09-26T08:14:06.174Z,25.96
2018-09-26T08:16:34.002Z,26.74
2018-09-26T08:19:01.675Z,26.59
2018-09-26T08:21:29.413Z,25.73
2018-09-26T08:23:57.058Z,25.15
2018-09-26T08:26:24.649Z,26.42
2018-09-26T08:28:52.195Z,26.25
2018-09-26T08:31:19.734Z,26.30
2018-09-26T08:33:47.467Z,24.90
2018-09-26T08:36:15.201Z,23.88
2018-09-26T08:38:42.752Z,23.34
2018-09-26T08:41:10.307Z,22.79
2018-09-26T08:43:37.850Z,23.77
2018-09-26T08:46:05.418Z,22.54
2018-09-26T08:48:33.022Z,21.63
2018-09-26T08:51:00.729Z,21.24
2018-09-26T08:53:28.344Z,21.00
2018-09-26T08:55:55.931Z,20.61
2018-09-26T08:58:23.458Z,21.91
2018-09-26T09:00:51.110Z,21.11
2018-09-26T09:03:18.678Z,20.10
2018-09-26T09:05:46.281Z,20.45
2018-09-26T09:08:13.824Z,20.96
2018-09-26T09:10:41.640Z,21.13
2018-09-26T09:13:09.184Z,21.48
2018-09-26T09:15:36.705Z,19.61
2018-09-26T09:18:04.254Z,19.11
2018-09-26T09:20:31.786Z,19.30
2018-09-26T09:22:59.338Z,18.91
2018-09-26T09:25:26.909Z,19.33
2018-09-26T09:27:54.478Z,20.85
2018-09-26T09:30:22.047Z,21.44
2018-09-26T09:32:49.933Z,21.52
2018-09-26T09:35:17.828Z,22.12
2018-09-26T09:37:45.406Z,21.94
2018-09-26T09:40:12.961Z,22.08
2018-09-26T09:42:40.542Z,24.31
2018-09-26T09:45:08.114Z,24.31
2018-09-26T09:47:35.671Z,25.63
2018-09-26T09:50:03.226Z,26.38
2018-09-26T09:52:30.733Z,26.69
2018-09-26T09:54:58.282Z,26.15
2018-09-26T09:57:25.823Z,25.75
2018-09-26T09:59:53.371Z,25.28
2018-09-26T10:02:21.010Z,22.55
2018-09-26T10:04:48.485Z,22.40
2018-09-26T10:07:16.229Z,21.25
2018-09-26T10:09:43.833Z,21.18
2018-09-26T10:12:12.081Z,20.57
2018-09-26T10:14:39.703Z,20.54
2018-09-26T10:17:07.886Z,19.98
2018-09-26T10:19:35.447Z,20.06
2018-09-26T10:22:03.034Z,19.42
2018-09-26T10:24:30.602Z,20.88
2018-09-26T10:26:58.135Z,20.88
2018-09-26T10:29:25.634Z,19.59
2018-09-26T10:31:53.207Z,20.43
2018-09-26T10:34:20.702Z,19.44
2018-09-26T10:36:48.267Z,19.56
2018-09-26T10:39:15.893Z,19.10
2018-09-26T10:41:43.438Z,19.28
2018-09-26T10:44:11.251Z,18.98
2018-09-26T10:46:38.785Z,19.19
2018-09-26T10:49:06.329Z,19.62
2018-09-26T10:51:33.898Z,20.07
2018-09-26T10:54:01.414Z,20.05
2018-09-26T10:56:29.085Z,20.71
2018-09-26T10:58:56.582Z,19.29
2018-09-26T11:01:24.108Z,20.30
2018-09-26T11:03:51.619Z,20.27
2018-09-26T11:06:19.175Z,21.35
2018-09-26T11:08:46.707Z,22.71
2018-09-26T11:11:14.233Z,23.50
2018-09-26T11:13:41.782Z,23.90
2018-09-26T11:16:09.404Z,25.08
2018-09-26T11:18:37.362Z,25.62
2018-09-26T11:21:05.058Z,24.94
2018-09-26T11:23:32.566Z,24.78
2018-09-26T11:26:00.085Z,24.20
2018-09-26T11:28:27.642Z,25.50
2018-09-26T11:30:55.169Z,24.50
2018-09-26T11:33:22.704Z,24.93
2018-09-26T11:35:50.466Z,24.69
2018-09-26T11:38:18.023Z,25.25
2018-09-26T11:40:45.470Z,25.51
2018-09-26T11:43:12.979Z,24.10
2018-09-26T11:45:40.467Z,24.80
2018-09-26T11:48:07.982Z,25.99
2018-09-26T11:50:35.485Z,25.35
2018-09-26T11:53:03.318Z,24.35
2018-09-26T11:55:30.805Z,24.49
2018-09-26T11:57:58.305Z,24.37
2018-09-26T12:00:26.271Z,24.85
2018-09-26T12:02:53.767Z,22.85
2018-09-26T12:05:21.264Z,22.82
2018-09-26T12:07:48.794Z,23.51
2018-09-26T12:10:16.363Z,23.27
2018-09-26T12:12:44.199Z,24.36
2018-09-26T12:15:11.842Z,24.25
2018-09-26T12:17:39.470Z,23.55
2018-09-26T12:20:07.100Z,24.73
2018-09-26T12:22:34.636Z,24.83
2018-09-26T12:25:02.155Z,24.76
2018-09-26T12:27:29.853Z,25.44
2018-09-26T12:29:57.371Z,25.03
2018-09-26T12:32:24.882Z,24.34
2018-09-26T12:34:52.468Z,24.67
2018-09-26T12:37:19.964Z,25.91
2018-09-26T12:39:47.481Z,25.08
2018-09-26T12:42:15.050Z,25.21
2018-09-26T12:44:42.809Z,25.16
2018-09-26T12:47:10.353Z,23.96
2018-09-26T12:49:37.818Z,24.24
2018-09-26T12:52:05.853Z,24.04
2018-09-26T12:54:33.358Z,23.24
2018-09-26T12:57:00.907Z,25.44
2018-09-26T12:59:28.450Z,26.12
2018-09-26T13:01:55.972Z,26.13
2018-09-26T13:04:23.568Z,24.79
2018-09-26T13:06:51.026Z,26.72
2018-09-26T13:09:18.564Z,27.14
2018-09-26T13:11:46.430Z,27.32
2018-09-26T13:14:13.932Z,27.35
2018-09-26T13:16:41.454Z,26.58
2018-09-26T13:19:09.010Z,26.85
2018-09-26T13:21:36.521Z,26.79
2018-09-26T13:24:04.053Z,26.54
2018-09-26T13:26:31.645Z,25.98
2018-09-26T13:28:59.190Z,26.15
2018-09-26T13:31:26.847Z,25.83
2018-09-26T13:33:54.580Z,26.13
2018-09-26T13:36:22.147Z,26.11
2018-09-26T13:38:49.630Z,27.05
2018-09-26T13:41:17.235Z,28.09
2018-09-26T13:43:44.767Z,28.57
2018-09-26T13:46:12.320Z,28.40
2018-09-26T13:48:39.879Z,27.89
2018-09-26T13:51:07.514Z,28.51
2018-09-26T13:53:35.102Z,27.45
2018-09-26T13:56:02.658Z,27.91
2018-09-26T13:58:30.219Z,28.09
2018-09-26T14:00:57.810Z,27.45
2018-09-26T14:03:25.397Z,27.66
2018-09-26T14:05:52.965Z,27.71
2018-09-26T14:08:20.669Z,27.65
2018-09-26T14:10:48.263Z,27.11
2018-09-26T14:13:15.722Z,30.32
2018-09-26T14:15:43.247Z,30.96
2018-09-26T14:18:10.766Z,31.23
2018-09-26T14:20:38.337Z,32.22
2018-09-26T14:23:05.906Z,33.26
2018-09-26T14:25:33.446Z,32.64
2018-09-26T14:28:01.889Z,33.31
2018-09-26T14:30:29.530Z,33.73
2018-09-26T14:32:57.034Z,32.87
2018-09-26T14:35:24.677Z,33.63
2018-09-26T14:37:53.062Z,32.93
2018-09-26T14:40:20.615Z,33.59
2018-09-26T14:42:48.142Z,33.75
2018-09-26T14:45:15.710Z,33.19
2018-09-26T14:47:43.355Z,34.07
2018-09-26T14:50:11.032Z,33.08
2018-09-26T14:52:39.556Z,34.34
2018-09-26T14:55:07.141Z,34.69
2018-09-26T14:57:34.677Z,33.92
2018-09-26T15:00:02.219Z,33.07
2018-09-26T15:02:29.751Z,33.39
2018-09-26T15:04:57.442Z,33.95
2018-09-26T15:07:25.753Z,34.48
2018-09-26T15:09:53.473Z,34.26
2018-09-26T15:12:21.003Z,33.22
2018-09-26T15:14:48.488Z,33.64
2018-09-26T15:17:16.190Z,33.59
2018-09-26T15:19:43.754Z,34.03
2018-09-26T15:22:11.378Z,34.78
2018-09-26T15:24:38.905Z,33.88
2018-09-26T15:27:06.495Z,33.37
2018-09-26T15:29:34.511Z,34.24
2018-09-26T15:32:02.065Z,34.18
2018-09-26T15:34:29.587Z,34.96
2018-09-26T15:36:58.069Z,34.47
2018-09-26T15:39:25.631Z,34.59
2018-09-26T15:41:53.160Z,34.59
2018-09-26T15:44:20.865Z,34.43
2018-09-26T15:46:48.398Z,34.24
2018-09-26T15:49:15.883Z,35.14
2018-09-26T15:51:43.453Z,34.51
2018-09-26T15:54:11.171Z,34.47
2018-09-26T15:56:38.682Z,33.99
2018-09-26T15:59:06.242Z,34.14
2018-09-26T16:01:34.076Z,34.54
2018-09-26T16:04:01.639Z,34.99
2018-09-26T16:06:29.254Z,35.72
2018-09-26T16:08:56.963Z,35.20
2018-09-26T16:11:24.529Z,34.72
2018-09-26T16:13:52.051Z,35.86
2018-09-26T16:16:19.749Z,35.67
2018-09-26T16:18:47.258Z,35.72
2018-09-26T16:21:15.497Z,35.72
2018-09-26T16:23:43.097Z,36.22
2018-09-26T16:26:10.674Z,35.70
2018-09-26T16:28:38.182Z,36.07
2018-09-26T16:31:05.810Z,35.75
2018-09-26T16:33:33.461Z,36.20
2018-09-26T16:36:01.129Z,36.96
2018-09-26T16:38:28.779Z,36.26
2018-09-26T16:40:56.330Z,36.44
2018-09-26T16:43:23.839Z,36.63
2018-09-26T16:45:52.474Z,37.10
2018-09-26T16:48:20.241Z,36.74
2018-09-26T16:50:47.940Z,37.28
2018-09-26T16:53:15.508Z,37.53
2018-09-26T16:55:43.093Z,39.90
2018-09-26T16:58:11.290Z,41.67
2018-09-26T17:00:38.803Z,42.20
2018-09-26T17:03:06.403Z,43.66
2018-09-26T17:05:33.954Z,44.08
2018-09-26T17:08:01.579Z,44.23
2018-09-26T17:10:29.106Z,44.38
2018-09-26T17:12:56.925Z,45.05
2018-09-26T17:15:25.140Z,45.53
2018-09-26T17:17:53.448Z,46.51
2018-09-26T17:20:21.720Z,46.18
2018-09-26T17:22:49.306Z,46.55
2018-09-26T17:25:16.865Z,46.76
2018-09-26T17:27:44.446Z,46.96
2018-09-26T17:30:12.047Z,47.87
2018-09-26T17:32:39.848Z,48.75
2018-09-26T17:35:07.719Z,48.78
2018-09-26T17:37:35.354Z,47.78
2018-09-26T17:40:02.908Z,48.25
2018-09-26T17:42:30.427Z,47.98
2018-09-26T17:44:57.963Z,48.92
2018-09-26T17:47:25.511Z,49.03
2018-09-26T17:49:53.052Z,49.49
2018-09-26T17:52:20.624Z,49.47
2018-09-26T17:54:48.476Z,50.36
2018-09-26T17:57:15.958Z,50.16
2018-09-26T17:59:43.521Z,50.75
2018-09-26T18:02:11.126Z,51.49
2018-09-26T18:04:38.636Z,52.70
2018-09-26T18:07:06.186Z,53.26
2018-09-26T18:09:33.766Z,53.32
2018-09-26T18:12:01.329Z,53.79
2018-09-26T18:14:28.891Z,53.32
2018-09-26T18:16:56.462Z,53.91
2018-09-26T18:19:24.016Z,53.37
2018-09-26T18:21:51.576Z,53.15
2018-09-26T18:24:19.116Z,52.69
2018-09-26T18:26:46.770Z,53.19
2018-09-26T18:29:14.324Z,52.91
2018-09-26T18:31:41.842Z,53.88
2018-09-26T18:34:09.417Z,54.28
2018-09-26T18:36:37.016Z,54.97
2018-09-26T18:39:05.997Z,54.19
2018-09-26T18:41:33.484Z,53.91
2018-09-26T18:44:01.042Z,54.04
2018-09-26T18:46:28.654Z,55.00
2018-09-26T18:48:56.183Z,54.90
2018-09-26T18:51:23.742Z,55.69
2018-09-26T18:53:51.423Z,55.71
2018-09-26T18:56:18.981Z,54.80
2018-09-26T18:58:46.681Z,54.68
2018-09-26T19:01:14.230Z,54.98
2018-09-26T19:03:41.765Z,54.81
2018-09-26T19:06:09.365Z,54.70
2018-09-26T19:08:37.603Z,55.06
2018-09-26T19:11:05.187Z,55.84
2018-09-26T19:13:32.786Z,56.20
2018-09-26T19:16:00.325Z,56.53
2018-09-26T19:18:27.877Z,56.61
2018-09-26T19:20:55.566Z,56.73
2018-09-26T19:23:23.065Z,56.82
2018-09-26T19:25:50.618Z,57.73
2018-09-26T19:28:18.212Z,58.16
2018-09-26T19:30:45.784Z,57.55
2018-09-26T19:33:13.435Z,57.41
2018-09-26T19:35:41.167Z,57.79
2018-09-26T19:38:08.971Z,57.46
2018-09-26T19:40:36.511Z,57.65
2018-09-26T19:43:04.055Z,57.84
2018-09-26T19:45:31.601Z,58.74
2018-09-26T19:47:59.145Z,58.69
2018-09-26T19:50:26.784Z,59.35
2018-09-26T19:52:54.365Z,59.95
2018-09-26T19:55:22.027Z,60.14
2018-09-26T19:57:50.231Z,60.43
2018-09-26T20:00:17.748Z,60.22
2018-09-26T20:02:45.290Z,60.52
2018-09-26T20:05:12.937Z,60.62
2018-09-26T20:07:40.483Z,60.77
2018-09-26T20:10:08.500Z,60.92
2018-09-26T20:12:36.053Z,60.75
2018-09-26T20:15:03.684Z,61.17
2018-09-26T20:17:31.234Z,62.11
2018-09-26T20:19:58.834Z,61.62
2018-09-26T20:22:26.395Z,61.99
2018-09-26T20:24:54.026Z,62.20
2018-09-26T20:27:21.732Z,61.48
2018-09-26T20:29:49.187Z,61.70
2018-09-26T20:32:16.698Z,61.89
2018-09-26T20:34:44.247Z,62.03
2018-09-26T20:37:11.868Z,63.21
2018-09-26T20:39:39.330Z,63.28
2018-09-26T20:42:06.866Z,64.00
2018-09-26T20:44:34.803Z,64.15
2018-09-26T20:47:02.322Z,64.71
2018-09-26T20:49:29.892Z,65.03
2018-09-26T20:51:57.495Z,65.23
2018-09-26T20:54:25.145Z,65.13
2018-09-26T20:56:52.753Z,65.42
2018-09-26T20:59:20.271Z,65.79
2018-09-26T21:01:47.787Z,64.91
2018-09-26T21:04:15.360Z,64.66
2018-09-26T21:06:42.942Z,64.96
2018-09-26T21:09:11.066Z,64.29
2018-09-26T21:11:39.109Z,64.03
2018-09-26T21:14:06.630Z,64.39
2018-09-26T21:16:34.320Z,64.62
2018-09-26T21:19:01.827Z,65.11
2018-09-26T21:21:29.340Z,65.40
2018-09-26T21:23:57.465Z,65.86
2018-09-26T21:26:25.210Z,65.98
2018-09-26T21:28:52.770Z,66.25
2018-09-26T21:31:20.390Z,66.05
2018-09-26T21:33:48.011Z,66.25
2018-09-26T21:36:15.520Z,66.26
2018-09-26T21:38:43.054Z,66.39
2018-09-26T21:41:10.818Z,66.63
2018-09-26T21:43:38.323Z,66.32
2018-09-26T21:46:05.837Z,66.03
2018-09-26T21:48:33.483Z,66.24
2018-09-26T21:51:01.231Z,66.20
2018-09-26T21:53:28.834Z,65.57
2018-09-26T21:55:56.374Z,66.13
2018-09-26T21:58:23.957Z,66.33
2018-09-26T22:00:57.109Z,66.41
2018-09-26T22:03:25.094Z,66.84
2018-09-26T22:05:52.682Z,67.13
2018-09-26T22:08:20.399Z,67.15
2018-09-26T22:10:48.014Z,67.74
2018-09-26T22:13:15.615Z,67.67
2018-09-26T22:15:43.522Z,67.55
2018-09-26T22:18:11.123Z,67.54
2018-09-26T22:20:38.737Z,67.20
2018-09-26T22:23:07.145Z,67.12
2018-09-26T22:25:34.763Z,67.24
2018-09-26T22:28:02.494Z,67.42
2018-09-26T22:30:30.078Z,67.88
2018-09-26T22:32:57.691Z,67.74
2018-09-26T22:35:25.376Z,67.67
2018-09-26T22:37:52.960Z,67.86
2018-09-26T22:40:20.583Z,68.02
2018-09-26T22:42:48.221Z,68.19
2018-09-26T22:45:15.798Z,68.65
2018-09-26T22:47:43.402Z,68.91
2018-09-26T22:50:10.986Z,69.14
2018-09-26T22:52:38.550Z,69.18
2018-09-26T22:55:06.259Z,69.29
2018-09-26T22:57:33.846Z,69.47
2018-09-26T23:00:01.721Z,69.47
2018-09-26T23:02:29.346Z,69.30
2018-09-26T23:04:56.921Z,69.38
2018-09-26T23:07:24.534Z,69.31
2018-09-26T23:09:52.173Z,69.34
2018-09-26T23:12:19.773Z,69.24
2018-09-26T23:14:47.581Z,69.30
2018-09-26T23:17:15.170Z,69.66
2018-09-26T23:19:42.864Z,69.77
2018-09-26T23:22:10.474Z,69.21
2018-09-26T23:24:38.335Z,69.50
2018-09-26T23:27:05.982Z,69.83
2018-09-26T23:29:33.565Z,70.29
2018-09-26T23:32:01.196Z,70.58
2018-09-26T23:34:28.871Z,70.71
2018-09-26T23:36:56.493Z,70.43
2018-09-26T23:39:24.086Z,70.74
2018-09-26T23:41:51.778Z,70.87
2018-09-26T23:44:19.357Z,70.21
2018-09-26T23:46:46.925Z,70.62
2018-09-26T23:49:14.535Z,70.43
2018-09-26T23:51:42.378Z,70.50
2018-09-26T23:54:10.188Z,70.34
2018-09-26T23:56:37.768Z,70.39
2018-09-26T23:59:05.370Z,70.33
